Gardner, Illinois
Current Conditions -  °F | °C
As of 3:35 PM on Wednesday 17 Dec 2014 (Local Time) from KC09 Reporting Station
Overcast Overcast  
Wind Chill: 16°   Ceiling: 2200
Heat Index: 27°   Visibility: 10mi
Dew Point: 20°   Wind: 12mph
Humidity: 77%   Direction: 310°NW
Pressure: 30.26"   Gusts: NA
Location:  41.19°N, 88.31°W
Report Text: KC09 172135Z AUTO 31010KT 10SM OVC022 M03/M07 A3026 RMK AO2 T10301066
Loading
Personal Weather Stations






























Interactive Weather Map New forecast layout! Learn more

10-Day Weather Forecast

Advertisements
Track Severe Weather on mobile